createdAt,value
2017-12-21T00:00:18.678Z,0.00
2017-12-21T00:01:18.674Z,0.00
2017-12-21T00:02:18.666Z,0.00
2017-12-21T00:03:18.660Z,0.00
2017-12-21T00:04:18.653Z,0.00
2017-12-21T00:05:18.647Z,0.00
2017-12-21T00:06:18.640Z,0.00
2017-12-21T00:07:18.633Z,0.00
2017-12-21T00:08:18.627Z,0.00
2017-12-21T00:09:18.623Z,0.00
2017-12-21T00:10:18.613Z,0.00
2017-12-21T00:11:18.607Z,0.00
2017-12-21T00:12:18.602Z,0.00
2017-12-21T00:13:18.595Z,0.00
2017-12-21T00:14:18.588Z,0.00
2017-12-21T00:15:18.581Z,0.00
2017-12-21T00:16:18.576Z,0.00
2017-12-21T00:17:18.568Z,0.00
2017-12-21T00:18:18.562Z,0.00
2017-12-21T00:19:18.555Z,0.00
2017-12-21T00:20:18.553Z,0.00
2017-12-21T00:21:18.544Z,0.00
2017-12-21T00:22:18.533Z,0.00
2017-12-21T00:23:18.532Z,0.00
2017-12-21T00:24:18.524Z,0.00
2017-12-21T00:25:18.516Z,0.00
2017-12-21T00:26:18.509Z,0.00
2017-12-21T00:27:18.505Z,0.00
2017-12-21T00:28:18.502Z,0.00
2017-12-21T00:29:18.500Z,0.00
2017-12-21T00:30:18.483Z,0.00
2017-12-21T00:31:18.478Z,0.00
2017-12-21T00:32:18.472Z,0.00
2017-12-21T00:33:18.464Z,0.00
2017-12-21T00:34:18.456Z,0.00
2017-12-21T00:35:18.450Z,0.00
2017-12-21T00:36:18.447Z,0.00
2017-12-21T00:37:18.439Z,0.00
2017-12-21T00:38:18.431Z,0.00
2017-12-21T00:39:18.424Z,0.00
2017-12-21T00:40:18.421Z,0.00
2017-12-21T00:41:18.413Z,0.00
2017-12-21T00:42:18.404Z,0.00
2017-12-21T00:43:18.399Z,0.00
2017-12-21T00:44:18.392Z,0.00
2017-12-21T00:45:18.387Z,0.00
2017-12-21T00:46:18.382Z,0.00
2017-12-21T00:47:18.372Z,0.00
2017-12-21T00:48:18.367Z,0.00
2017-12-21T00:49:18.360Z,0.00
2017-12-21T00:50:18.354Z,0.00
2017-12-21T00:51:18.347Z,0.00
2017-12-21T00:52:18.341Z,0.00
2017-12-21T00:53:18.335Z,0.00
2017-12-21T00:54:18.330Z,0.00
2017-12-21T00:55:18.321Z,0.00
2017-12-21T00:56:18.315Z,0.00
2017-12-21T00:57:18.308Z,0.00
2017-12-21T00:58:18.303Z,0.00
2017-12-21T00:59:18.297Z,0.00
2017-12-21T01:00:18.289Z,0.00
2017-12-21T01:01:18.284Z,0.00
2017-12-21T01:02:18.276Z,0.00
2017-12-21T01:03:18.273Z,0.00
2017-12-21T01:04:18.263Z,0.00
2017-12-21T01:05:18.257Z,0.00
2017-12-21T01:06:18.252Z,0.00
2017-12-21T01:07:18.246Z,0.00
2017-12-21T01:08:18.239Z,0.00
2017-12-21T01:09:18.232Z,0.00
2017-12-21T01:10:18.225Z,0.00
2017-12-21T01:11:18.219Z,0.00
2017-12-21T01:12:18.212Z,0.00
2017-12-21T01:13:18.206Z,0.00
2017-12-21T01:14:18.199Z,0.00
2017-12-21T01:15:18.194Z,0.00
2017-12-21T01:16:18.188Z,0.00
2017-12-21T01:17:18.180Z,0.00
2017-12-21T01:18:18.175Z,0.00
2017-12-21T01:19:18.167Z,0.00
2017-12-21T01:20:18.161Z,0.00
2017-12-21T01:21:18.156Z,0.00
2017-12-21T01:22:18.149Z,0.00
2017-12-21T01:23:18.142Z,0.00
2017-12-21T01:24:18.135Z,0.00
2017-12-21T01:25:18.131Z,0.00
2017-12-21T01:26:18.139Z,0.00
2017-12-21T01:27:18.119Z,0.00
2017-12-21T01:28:18.110Z,0.00
2017-12-21T01:29:18.105Z,0.00
2017-12-21T01:30:18.098Z,0.00
2017-12-21T01:31:18.093Z,0.00
2017-12-21T01:32:18.084Z,0.00
2017-12-21T01:33:18.079Z,0.00
2017-12-21T01:34:18.074Z,0.00
2017-12-21T01:35:18.067Z,0.00
2017-12-21T01:36:18.061Z,0.00
2017-12-21T01:37:18.053Z,0.00
2017-12-21T01:38:18.048Z,0.00
2017-12-21T01:39:18.040Z,0.00
2017-12-21T01:40:18.036Z,0.00
2017-12-21T01:41:18.028Z,0.00
2017-12-21T01:42:18.021Z,0.00
2017-12-21T01:43:18.020Z,0.00
2017-12-21T01:44:18.011Z,0.00
2017-12-21T01:45:18.010Z,0.00
2017-12-21T01:46:17.997Z,0.00
2017-12-21T01:47:17.990Z,0.00
2017-12-21T01:48:17.984Z,0.00
2017-12-21T01:49:17.981Z,0.00
2017-12-21T01:50:17.970Z,0.00
2017-12-21T01:51:17.964Z,0.00
2017-12-21T01:52:17.960Z,0.00
2017-12-21T01:53:17.954Z,0.00
2017-12-21T01:54:17.944Z,0.00
2017-12-21T01:55:17.937Z,0.00
2017-12-21T01:56:17.933Z,0.00
2017-12-21T01:57:17.927Z,0.00
2017-12-21T01:58:17.920Z,0.00
2017-12-21T01:59:17.912Z,0.00
2017-12-21T02:00:17.909Z,0.00
2017-12-21T02:01:17.901Z,0.00
2017-12-21T02:02:17.894Z,0.00
2017-12-21T02:03:17.889Z,0.00
2017-12-21T02:04:17.883Z,0.00
2017-12-21T02:05:17.877Z,0.00
2017-12-21T02:06:17.868Z,0.00
2017-12-21T02:07:17.864Z,0.00
2017-12-21T02:08:17.857Z,0.00
2017-12-21T02:09:17.858Z,0.00
2017-12-21T02:10:17.843Z,0.00
2017-12-21T02:11:17.840Z,0.00
2017-12-21T02:12:17.831Z,0.00
2017-12-21T02:13:17.826Z,0.00
2017-12-21T02:14:17.818Z,0.00
2017-12-21T02:15:17.812Z,0.00
2017-12-21T02:16:17.806Z,0.00
2017-12-21T02:17:17.799Z,0.00
2017-12-21T02:18:17.792Z,0.00
2017-12-21T02:19:17.788Z,0.00
2017-12-21T02:20:17.782Z,0.00
2017-12-21T02:21:17.775Z,0.00
2017-12-21T02:22:17.770Z,0.00
2017-12-21T02:23:17.762Z,0.00
2017-12-21T02:24:17.755Z,0.00
2017-12-21T02:25:17.750Z,0.00
2017-12-21T02:26:17.744Z,0.00
2017-12-21T02:27:17.736Z,0.00
2017-12-21T02:28:17.732Z,0.00
2017-12-21T02:29:17.722Z,0.00
2017-12-21T02:30:17.719Z,0.00
2017-12-21T02:31:17.711Z,0.00
2017-12-21T02:32:17.706Z,0.00
2017-12-21T02:33:17.698Z,0.00
2017-12-21T02:34:17.694Z,0.00
2017-12-21T02:35:17.688Z,0.00
2017-12-21T02:36:17.681Z,0.00
2017-12-21T02:37:17.672Z,0.00
2017-12-21T02:38:17.671Z,0.00
2017-12-21T02:39:17.661Z,0.00
2017-12-21T02:40:17.686Z,0.00
2017-12-21T02:41:17.650Z,0.00
2017-12-21T02:42:17.645Z,0.00
2017-12-21T02:43:17.637Z,0.00
2017-12-21T02:44:17.628Z,0.00
2017-12-21T02:45:17.625Z,0.00
2017-12-21T02:46:17.617Z,0.00
2017-12-21T02:47:17.611Z,0.00
2017-12-21T02:48:17.604Z,0.00
2017-12-21T02:49:17.598Z,0.00
2017-12-21T02:50:17.592Z,0.00
2017-12-21T02:51:17.588Z,0.00
2017-12-21T02:52:17.579Z,0.00
2017-12-21T02:53:17.572Z,0.00
2017-12-21T02:54:17.568Z,0.00
2017-12-21T02:55:17.560Z,0.00
2017-12-21T02:56:17.553Z,0.00
2017-12-21T02:57:17.547Z,0.00
2017-12-21T02:58:17.543Z,0.00
2017-12-21T02:59:17.535Z,0.00
2017-12-21T03:00:17.529Z,0.00
2017-12-21T03:01:17.520Z,0.00
2017-12-21T03:02:17.516Z,0.00
2017-12-21T03:03:17.510Z,0.00
2017-12-21T03:04:17.503Z,0.00
2017-12-21T03:05:17.498Z,0.00
2017-12-21T03:06:17.492Z,0.00
2017-12-21T03:07:17.484Z,0.00
2017-12-21T03:08:17.478Z,0.00
2017-12-21T03:09:17.471Z,0.00
2017-12-21T03:10:17.467Z,0.00
2017-12-21T03:11:17.458Z,0.00
2017-12-21T03:12:17.453Z,0.00
2017-12-21T03:13:17.446Z,0.00
2017-12-21T03:14:17.439Z,0.00
2017-12-21T03:15:17.434Z,0.00
2017-12-21T03:16:17.427Z,0.00
2017-12-21T03:17:17.421Z,0.00
2017-12-21T03:18:17.416Z,0.00
2017-12-21T03:19:17.407Z,0.00
2017-12-21T03:20:17.403Z,0.00
2017-12-21T03:21:17.397Z,0.00
2017-12-21T03:22:17.389Z,0.00
2017-12-21T03:23:17.383Z,0.00
2017-12-21T03:24:17.381Z,0.00
2017-12-21T03:25:17.371Z,0.00
2017-12-21T03:26:17.363Z,0.00
2017-12-21T03:27:17.363Z,0.00
2017-12-21T03:28:17.351Z,0.00
2017-12-21T03:29:17.345Z,0.00
2017-12-21T03:30:17.339Z,0.00
2017-12-21T03:31:17.334Z,0.00
2017-12-21T03:32:17.325Z,0.00
2017-12-21T03:33:17.320Z,0.00
2017-12-21T03:34:17.313Z,0.00
2017-12-21T03:35:17.307Z,0.00
2017-12-21T03:36:17.300Z,0.00
2017-12-21T03:37:17.295Z,0.00
2017-12-21T03:38:17.291Z,0.00
2017-12-21T03:39:17.282Z,0.00
2017-12-21T03:40:17.278Z,0.00
2017-12-21T03:41:17.270Z,0.00
2017-12-21T03:42:17.263Z,0.00
2017-12-21T03:43:17.257Z,0.00
2017-12-21T03:44:17.250Z,0.00
2017-12-21T03:45:17.246Z,0.00
2017-12-21T03:46:17.238Z,0.00
2017-12-21T03:47:17.232Z,0.00
2017-12-21T03:48:17.225Z,0.00
2017-12-21T03:49:17.220Z,0.00
2017-12-21T03:50:17.213Z,0.00
2017-12-21T03:51:17.206Z,0.00
2017-12-21T03:52:17.199Z,0.00
2017-12-21T03:53:17.193Z,0.00
2017-12-21T03:54:17.188Z,0.00
2017-12-21T03:55:17.181Z,0.00
2017-12-21T03:56:17.175Z,0.00
2017-12-21T03:57:17.170Z,0.00
2017-12-21T03:58:17.161Z,0.00
2017-12-21T03:59:17.156Z,0.00
2017-12-21T04:00:17.149Z,0.00
2017-12-21T04:01:17.146Z,0.00
2017-12-21T04:02:17.137Z,0.00
2017-12-21T04:03:17.130Z,0.00
2017-12-21T04:04:17.124Z,0.00
2017-12-21T04:05:17.117Z,0.00
2017-12-21T04:06:17.111Z,0.00
2017-12-21T04:07:17.105Z,0.00
2017-12-21T04:08:17.100Z,0.00
2017-12-21T04:09:17.093Z,0.00
2017-12-21T04:10:17.088Z,0.00
2017-12-21T04:11:17.079Z,0.00
2017-12-21T04:12:17.073Z,0.00
2017-12-21T04:13:17.068Z,0.00
2017-12-21T04:14:17.061Z,0.00
2017-12-21T04:15:17.055Z,0.00
2017-12-21T04:16:17.050Z,0.00
2017-12-21T04:17:17.048Z,0.00
2017-12-21T04:18:17.036Z,0.00
2017-12-21T04:19:17.032Z,0.00
2017-12-21T04:20:17.025Z,0.00
2017-12-21T04:21:17.018Z,0.00
2017-12-21T04:22:17.011Z,0.00
2017-12-21T04:23:17.006Z,0.00
2017-12-21T04:24:17.035Z,0.00
2017-12-21T04:25:16.992Z,0.00
2017-12-21T04:26:17.003Z,0.00
2017-12-21T04:27:16.988Z,0.00
2017-12-21T04:28:16.977Z,0.00
2017-12-21T04:29:16.969Z,0.00
2017-12-21T04:30:16.965Z,0.00
2017-12-21T04:31:16.956Z,0.00
2017-12-21T04:32:16.950Z,0.00
2017-12-21T04:33:16.943Z,0.00
2017-12-21T04:34:16.938Z,0.00
2017-12-21T04:35:16.932Z,0.00
2017-12-21T04:36:16.925Z,0.00
2017-12-21T04:37:16.919Z,0.00
2017-12-21T04:38:16.912Z,0.00
2017-12-21T04:39:16.907Z,0.00
2017-12-21T04:40:16.902Z,0.00
2017-12-21T04:41:16.895Z,0.00
2017-12-21T04:42:16.924Z,0.00
2017-12-21T04:43:16.882Z,0.00
2017-12-21T04:44:16.879Z,0.00
2017-12-21T04:45:16.871Z,0.00
2017-12-21T04:46:16.862Z,0.00
2017-12-21T04:47:16.861Z,0.00
2017-12-21T04:48:16.850Z,0.00
2017-12-21T04:49:16.846Z,4.00
2017-12-21T04:50:16.840Z,4.00
2017-12-21T04:51:16.833Z,4.00
2017-12-21T04:52:16.828Z,4.00
2017-12-21T04:53:16.820Z,0.00
2017-12-21T04:54:16.813Z,0.00
2017-12-21T04:55:16.807Z,0.00
2017-12-21T04:56:16.800Z,0.00
2017-12-21T04:57:16.794Z,0.00
2017-12-21T04:58:16.789Z,0.00
2017-12-21T04:59:16.781Z,0.00
2017-12-21T05:00:16.775Z,0.00
2017-12-21T05:01:16.767Z,0.00
2017-12-21T05:02:16.760Z,0.00
2017-12-21T05:03:16.752Z,0.00
2017-12-21T05:04:16.746Z,0.00
2017-12-21T05:05:16.739Z,0.00
2017-12-21T05:06:16.730Z,0.00
2017-12-21T05:07:16.723Z,0.00
2017-12-21T05:08:16.716Z,0.00
2017-12-21T05:09:16.710Z,0.00
2017-12-21T05:10:16.702Z,0.00
2017-12-21T05:11:16.694Z,0.00
2017-12-21T05:12:16.687Z,0.00
2017-12-21T05:13:16.680Z,0.00
2017-12-21T05:14:16.671Z,0.00
2017-12-21T05:15:16.665Z,0.00
2017-12-21T05:16:16.656Z,0.00
2017-12-21T05:17:16.651Z,0.00
2017-12-21T05:18:16.641Z,0.00
2017-12-21T05:19:16.635Z,0.00
2017-12-21T05:20:16.627Z,0.00
2017-12-21T05:21:16.619Z,0.00
2017-12-21T05:22:16.611Z,0.00
2017-12-21T05:23:16.606Z,0.00
2017-12-21T05:24:16.604Z,0.00
2017-12-21T05:25:16.589Z,0.00
2017-12-21T05:26:16.581Z,0.00
2017-12-21T05:27:16.575Z,0.00
2017-12-21T05:28:16.568Z,0.00
2017-12-21T05:29:16.559Z,0.00
2017-12-21T05:30:16.551Z,0.00
2017-12-21T05:31:16.544Z,0.00
2017-12-21T05:32:16.537Z,0.00
2017-12-21T05:33:16.536Z,0.00
2017-12-21T05:34:16.520Z,0.00
2017-12-21T05:35:16.514Z,0.00
2017-12-21T05:36:16.506Z,0.00
2017-12-21T05:37:16.499Z,0.00
2017-12-21T05:38:16.491Z,0.00
2017-12-21T05:39:16.485Z,0.00
2017-12-21T05:40:16.477Z,0.00
2017-12-21T05:41:16.473Z,0.00
2017-12-21T05:42:16.462Z,0.00
2017-12-21T05:43:16.454Z,0.00
2017-12-21T05:44:16.446Z,0.00
2017-12-21T05:45:16.440Z,0.00
2017-12-21T05:46:16.431Z,0.00
2017-12-21T05:47:16.424Z,0.00
2017-12-21T05:48:16.415Z,0.00
2017-12-21T05:49:16.409Z,0.00
2017-12-21T05:50:16.401Z,0.00
2017-12-21T05:51:16.394Z,0.00
2017-12-21T05:52:16.387Z,0.00
2017-12-21T05:53:16.378Z,0.00
2017-12-21T05:54:16.371Z,0.00
2017-12-21T05:55:16.363Z,0.00
2017-12-21T05:56:16.354Z,0.00
2017-12-21T05:57:16.350Z,0.00
2017-12-21T05:58:16.340Z,0.00
2017-12-21T05:59:16.331Z,0.00
2017-12-21T06:00:16.325Z,0.00
2017-12-21T06:01:16.318Z,0.00
2017-12-21T06:02:16.310Z,0.00
2017-12-21T06:03:16.303Z,0.00
2017-12-21T06:04:16.295Z,0.00
2017-12-21T06:05:16.290Z,0.00
2017-12-21T06:06:16.280Z,0.00
2017-12-21T06:07:16.273Z,0.00
2017-12-21T06:08:16.265Z,0.00
2017-12-21T06:09:16.258Z,0.00
2017-12-21T06:10:16.251Z,0.00
2017-12-21T06:11:16.293Z,0.00
2017-12-21T06:12:16.234Z,0.00
2017-12-21T06:13:16.229Z,0.00
2017-12-21T06:14:16.219Z,0.00
2017-12-21T06:15:16.212Z,0.00
2017-12-21T06:16:16.205Z,0.00
2017-12-21T06:17:16.197Z,0.00
2017-12-21T06:18:16.192Z,0.00
2017-12-21T06:19:16.181Z,0.00
2017-12-21T06:20:16.173Z,0.00
2017-12-21T06:21:16.169Z,0.00
2017-12-21T06:22:16.157Z,0.00
2017-12-21T06:23:16.151Z,0.00
2017-12-21T06:24:16.145Z,0.00
2017-12-21T06:25:16.142Z,0.00
2017-12-21T06:26:16.127Z,0.00
2017-12-21T06:27:16.120Z,0.00
2017-12-21T06:28:16.112Z,0.00
2017-12-21T06:29:16.104Z,0.00
2017-12-21T06:30:16.098Z,0.00
2017-12-21T06:31:16.090Z,0.00
2017-12-21T06:32:16.083Z,0.00
2017-12-21T06:33:16.075Z,0.00
2017-12-21T06:34:16.067Z,0.00
2017-12-21T06:35:16.059Z,0.00
2017-12-21T06:36:16.052Z,0.00
2017-12-21T06:37:16.045Z,0.00
2017-12-21T06:38:16.036Z,0.00
2017-12-21T06:39:16.027Z,0.00
2017-12-21T06:40:16.021Z,0.00
2017-12-21T06:41:16.013Z,0.00
2017-12-21T06:42:16.005Z,0.00
2017-12-21T06:43:16.051Z,0.00
2017-12-21T06:44:15.991Z,0.00
2017-12-21T06:45:15.983Z,0.00
2017-12-21T06:46:15.976Z,0.00
2017-12-21T06:47:15.968Z,0.00
2017-12-21T06:48:15.959Z,0.00
2017-12-21T06:49:15.954Z,0.00
2017-12-21T06:50:15.948Z,0.00
2017-12-21T06:51:15.936Z,0.00
2017-12-21T06:52:15.929Z,0.00
2017-12-21T06:53:15.922Z,0.00
2017-12-21T06:54:15.913Z,0.00
2017-12-21T06:55:15.906Z,0.00
2017-12-21T06:56:15.899Z,0.00
2017-12-21T06:57:15.891Z,0.00
2017-12-21T06:58:15.882Z,0.00
2017-12-21T06:59:15.875Z,0.00
2017-12-21T07:00:15.868Z,0.00
2017-12-21T07:01:15.861Z,0.00
2017-12-21T07:02:15.854Z,0.00
2017-12-21T07:03:15.845Z,0.00
2017-12-21T07:04:15.838Z,0.00
2017-12-21T07:05:15.834Z,0.00
2017-12-21T07:06:15.822Z,0.00
2017-12-21T07:07:15.813Z,0.00
2017-12-21T07:08:15.806Z,0.00
2017-12-21T07:09:15.800Z,0.00
2017-12-21T07:10:15.791Z,0.00
2017-12-21T07:11:15.785Z,0.00
2017-12-21T07:12:15.780Z,0.00
2017-12-21T07:13:15.768Z,0.00
2017-12-21T07:14:15.761Z,0.00
2017-12-21T07:15:15.754Z,0.00
2017-12-21T07:16:15.746Z,0.00
2017-12-21T07:17:15.739Z,0.00
2017-12-21T07:18:15.732Z,0.00
2017-12-21T07:19:15.756Z,4.00
2017-12-21T07:20:15.741Z,4.00
2017-12-21T07:21:15.706Z,4.00
2017-12-21T07:22:15.716Z,4.00
2017-12-21T07:23:15.692Z,4.00
2017-12-21T07:24:15.685Z,4.00
2017-12-21T07:25:15.676Z,4.00
2017-12-21T07:26:15.671Z,4.00
2017-12-21T07:27:15.661Z,4.00
2017-12-21T07:28:15.691Z,4.00
2017-12-21T07:29:15.647Z,4.00
2017-12-21T07:30:15.638Z,4.00
2017-12-21T07:31:15.630Z,0.00
2017-12-21T07:32:15.622Z,4.00
2017-12-21T07:33:15.615Z,4.00
2017-12-21T07:34:15.606Z,4.00
2017-12-21T07:35:15.599Z,4.00
2017-12-21T07:36:15.593Z,4.00
2017-12-21T07:37:15.583Z,8.00
2017-12-21T07:38:15.576Z,4.00
2017-12-21T07:39:15.569Z,8.00
2017-12-21T07:40:15.561Z,8.00
2017-12-21T07:41:15.555Z,4.00
2017-12-21T07:42:15.545Z,8.00
2017-12-21T07:43:15.538Z,8.00
2017-12-21T07:44:15.531Z,12.00
2017-12-21T07:45:15.525Z,12.00
2017-12-21T07:46:15.515Z,12.00
2017-12-21T07:47:15.509Z,12.00
2017-12-21T07:48:15.501Z,16.00
2017-12-21T07:49:15.493Z,16.00
2017-12-21T07:50:15.483Z,20.00
2017-12-21T07:51:15.476Z,16.00
2017-12-21T07:52:15.469Z,16.00
2017-12-21T07:53:15.463Z,16.00
2017-12-21T07:54:15.454Z,20.00
2017-12-21T07:55:15.447Z,20.00
2017-12-21T07:56:15.439Z,20.00
2017-12-21T07:57:15.430Z,20.00
2017-12-21T07:58:15.423Z,20.00
2017-12-21T07:59:15.415Z,20.00
2017-12-21T08:00:15.409Z,20.00
2017-12-21T08:01:15.402Z,20.00
2017-12-21T08:02:15.393Z,20.00
2017-12-21T08:03:15.385Z,24.00
2017-12-21T08:04:15.378Z,24.00
2017-12-21T08:05:15.370Z,24.00
2017-12-21T08:06:15.362Z,24.00
2017-12-21T08:07:15.354Z,24.00
2017-12-21T08:08:15.346Z,28.00
2017-12-21T08:09:15.339Z,28.00
2017-12-21T08:10:15.330Z,28.00
2017-12-21T08:11:15.324Z,32.00
2017-12-21T08:12:15.316Z,36.00
2017-12-21T08:13:15.309Z,36.00
2017-12-21T08:14:15.300Z,36.00
2017-12-21T08:15:15.294Z,44.00
2017-12-21T08:16:15.285Z,44.00
2017-12-21T08:17:15.277Z,44.00
2017-12-21T08:18:15.269Z,48.00
2017-12-21T08:19:15.262Z,48.00
2017-12-21T08:20:15.258Z,48.00
2017-12-21T08:21:15.247Z,48.00
2017-12-21T08:22:15.239Z,48.00
2017-12-21T08:23:15.235Z,44.00
2017-12-21T08:24:15.224Z,48.00
2017-12-21T08:25:15.217Z,48.00
2017-12-21T08:26:15.208Z,48.00
2017-12-21T08:27:15.202Z,48.00
2017-12-21T08:28:15.195Z,44.00
2017-12-21T08:29:15.189Z,40.00
2017-12-21T08:30:15.179Z,44.00
2017-12-21T08:31:15.170Z,44.00
2017-12-21T08:32:15.163Z,44.00
2017-12-21T08:33:15.155Z,44.00
2017-12-21T08:34:15.147Z,44.00
2017-12-21T08:35:15.140Z,44.00
2017-12-21T08:36:15.132Z,48.00
2017-12-21T08:37:15.124Z,44.00
2017-12-21T08:38:15.115Z,44.00
2017-12-21T08:39:15.108Z,44.00
2017-12-21T08:40:15.105Z,44.00
2017-12-21T08:41:15.093Z,44.00
2017-12-21T08:42:15.086Z,48.00
2017-12-21T08:43:15.078Z,48.00
2017-12-21T08:44:15.070Z,44.00
2017-12-21T08:45:15.079Z,44.00
2017-12-21T08:46:15.054Z,48.00
2017-12-21T08:47:15.048Z,48.00
2017-12-21T08:48:15.038Z,48.00
2017-12-21T08:49:15.032Z,52.00
2017-12-21T08:50:15.023Z,52.00
2017-12-21T08:51:15.017Z,52.00
2017-12-21T08:52:15.009Z,52.00
2017-12-21T08:53:15.001Z,56.00
2017-12-21T08:54:14.993Z,52.00
2017-12-21T08:55:14.987Z,56.00
2017-12-21T08:56:14.978Z,60.00
2017-12-21T08:57:14.971Z,64.00
2017-12-21T08:58:14.964Z,64.00
2017-12-21T08:59:14.955Z,68.00
2017-12-21T09:00:14.959Z,72.00
2017-12-21T09:01:14.941Z,80.00
2017-12-21T09:02:14.931Z,84.00
2017-12-21T09:03:14.939Z,88.00
2017-12-21T09:04:14.916Z,80.00
2017-12-21T09:05:14.907Z,80.00
2017-12-21T09:06:14.901Z,72.00
2017-12-21T09:07:14.893Z,68.00
2017-12-21T09:08:14.887Z,64.00
2017-12-21T09:09:14.879Z,68.00
2017-12-21T09:10:14.871Z,64.00
2017-12-21T09:11:14.863Z,68.00
2017-12-21T09:12:14.857Z,68.00
2017-12-21T09:13:14.854Z,68.00
2017-12-21T09:14:14.844Z,68.00
2017-12-21T09:15:14.835Z,68.00
2017-12-21T09:16:14.827Z,64.00
2017-12-21T09:17:14.818Z,60.00
2017-12-21T09:18:14.809Z,64.00
2017-12-21T09:19:14.806Z,68.00
2017-12-21T09:20:14.794Z,60.00
2017-12-21T09:21:14.787Z,56.00
2017-12-21T09:22:14.778Z,60.00
2017-12-21T09:23:14.773Z,60.00
2017-12-21T09:24:14.764Z,60.00
2017-12-21T09:25:14.756Z,60.00
2017-12-21T09:26:14.748Z,56.00
2017-12-21T09:27:14.741Z,56.00
2017-12-21T09:28:14.733Z,56.00
2017-12-21T09:29:14.728Z,56.00
2017-12-21T09:30:14.721Z,52.00
2017-12-21T09:31:14.709Z,52.00
2017-12-21T09:32:14.702Z,52.00
2017-12-21T09:33:14.695Z,48.00
2017-12-21T09:34:14.686Z,48.00
2017-12-21T09:35:14.678Z,52.00
2017-12-21T09:36:14.671Z,52.00
2017-12-21T09:37:14.664Z,48.00
2017-12-21T09:38:14.656Z,48.00
2017-12-21T09:39:14.648Z,48.00
2017-12-21T09:40:14.641Z,48.00
2017-12-21T09:41:14.635Z,48.00
2017-12-21T09:42:14.625Z,44.00
2017-12-21T09:43:14.617Z,44.00
2017-12-21T09:44:14.610Z,44.00
2017-12-21T09:45:14.604Z,48.00
2017-12-21T09:46:14.597Z,48.00
2017-12-21T09:47:14.588Z,44.00
2017-12-21T09:48:14.579Z,52.00
2017-12-21T09:49:14.577Z,48.00
2017-12-21T09:50:14.564Z,48.00
2017-12-21T09:51:14.559Z,48.00
2017-12-21T09:52:14.548Z,48.00
2017-12-21T09:53:14.541Z,44.00
2017-12-21T09:54:14.533Z,44.00
2017-12-21T09:55:14.526Z,48.00
2017-12-21T09:56:14.519Z,48.00
2017-12-21T09:57:14.511Z,44.00
2017-12-21T09:58:14.502Z,44.00
2017-12-21T09:59:14.496Z,44.00
2017-12-21T10:00:14.509Z,52.00
2017-12-21T10:01:14.478Z,52.00
2017-12-21T10:02:14.474Z,60.00
2017-12-21T10:03:14.464Z,60.00
2017-12-21T10:04:14.456Z,60.00
2017-12-21T10:05:14.449Z,72.00
2017-12-21T10:06:14.440Z,68.00
2017-12-21T10:07:14.432Z,72.00
2017-12-21T10:08:14.425Z,80.00
2017-12-21T10:09:14.419Z,92.00
2017-12-21T10:10:14.408Z,96.00
2017-12-21T10:11:14.402Z,108.00
2017-12-21T10:12:14.395Z,116.00
2017-12-21T10:13:14.385Z,120.00
2017-12-21T10:14:14.379Z,124.00
2017-12-21T10:15:14.371Z,124.00
2017-12-21T10:16:14.364Z,124.00
2017-12-21T10:17:14.354Z,116.00
2017-12-21T10:18:14.350Z,112.00
2017-12-21T10:19:14.340Z,108.00
2017-12-21T10:20:14.332Z,108.00
2017-12-21T10:21:14.326Z,104.00
2017-12-21T10:22:14.320Z,100.00
2017-12-21T10:23:14.309Z,100.00
2017-12-21T10:24:14.302Z,104.00
2017-12-21T10:25:14.294Z,108.00
2017-12-21T10:26:14.286Z,108.00
2017-12-21T10:27:14.279Z,108.00
2017-12-21T10:28:14.270Z,120.00
2017-12-21T10:29:14.263Z,124.00
2017-12-21T10:30:14.254Z,120.00
2017-12-21T10:31:14.247Z,124.00
2017-12-21T10:32:14.260Z,124.00
2017-12-21T10:33:14.238Z,116.00
2017-12-21T10:34:14.224Z,120.00
2017-12-21T10:35:14.218Z,124.00
2017-12-21T10:36:14.212Z,120.00
2017-12-21T10:37:14.202Z,116.00
2017-12-21T10:38:14.193Z,116.00
2017-12-21T10:39:14.188Z,104.00
2017-12-21T10:40:14.178Z,104.00
2017-12-21T10:41:14.171Z,104.00
2017-12-21T10:42:14.163Z,96.00
2017-12-21T10:43:14.156Z,84.00
2017-12-21T10:44:14.149Z,80.00
2017-12-21T10:45:14.140Z,84.00
2017-12-21T10:46:14.133Z,80.00
2017-12-21T10:47:14.126Z,80.00
2017-12-21T10:48:14.116Z,76.00
2017-12-21T10:49:14.111Z,80.00
2017-12-21T10:50:14.102Z,76.00
2017-12-21T10:51:14.094Z,76.00
2017-12-21T10:52:14.125Z,72.00
2017-12-21T10:53:14.081Z,72.00
2017-12-21T10:54:14.072Z,72.00
2017-12-21T10:55:14.064Z,64.00
2017-12-21T10:56:14.056Z,64.00
2017-12-21T10:57:14.048Z,60.00
2017-12-21T10:58:14.041Z,68.00
2017-12-21T10:59:14.034Z,72.00
2017-12-21T11:00:14.028Z,68.00
2017-12-21T11:01:14.018Z,72.00
2017-12-21T11:02:14.010Z,72.00
2017-12-21T11:03:14.002Z,76.00
2017-12-21T11:04:13.997Z,72.00
2017-12-21T11:05:13.988Z,72.00
2017-12-21T11:06:13.978Z,68.00
2017-12-21T11:07:13.972Z,72.00
2017-12-21T11:08:13.965Z,68.00
2017-12-21T11:09:13.958Z,64.00
2017-12-21T11:10:13.947Z,68.00
2017-12-21T11:11:13.942Z,68.00
2017-12-21T11:12:13.934Z,68.00
2017-12-21T11:13:13.926Z,72.00
2017-12-21T11:14:13.918Z,68.00
2017-12-21T11:15:13.911Z,68.00
2017-12-21T11:16:13.903Z,68.00
2017-12-21T11:17:13.896Z,68.00
2017-12-21T11:18:13.888Z,72.00
2017-12-21T11:19:13.880Z,68.00
2017-12-21T11:20:13.873Z,68.00
2017-12-21T11:21:13.866Z,68.00
2017-12-21T11:22:13.859Z,68.00
2017-12-21T11:23:13.850Z,72.00
2017-12-21T11:24:13.841Z,76.00
2017-12-21T11:25:13.834Z,72.00
2017-12-21T11:26:13.825Z,72.00
2017-12-21T11:27:13.818Z,76.00
2017-12-21T11:28:13.811Z,72.00
2017-12-21T11:29:13.804Z,72.00
2017-12-21T11:30:13.795Z,76.00
2017-12-21T11:31:13.787Z,76.00
2017-12-21T11:32:13.780Z,76.00
2017-12-21T11:33:13.773Z,76.00
2017-12-21T11:34:13.765Z,80.00
2017-12-21T11:35:13.757Z,84.00
2017-12-21T11:36:13.749Z,88.00
2017-12-21T11:37:13.743Z,84.00
2017-12-21T11:38:13.756Z,88.00
2017-12-21T11:39:13.728Z,88.00
2017-12-21T11:40:13.719Z,88.00
2017-12-21T11:41:13.715Z,100.00
2017-12-21T11:42:13.703Z,88.00
2017-12-21T11:43:13.695Z,84.00
2017-12-21T11:44:13.689Z,80.00
2017-12-21T11:45:13.681Z,92.00
2017-12-21T11:46:13.672Z,84.00
2017-12-21T11:47:13.666Z,88.00
2017-12-21T11:48:13.657Z,84.00
2017-12-21T11:49:13.650Z,80.00
2017-12-21T11:50:13.640Z,72.00
2017-12-21T11:51:13.636Z,76.00
2017-12-21T11:52:13.626Z,76.00
2017-12-21T11:53:13.619Z,80.00
2017-12-21T11:54:13.612Z,80.00
2017-12-21T11:55:13.605Z,84.00
2017-12-21T11:56:13.597Z,80.00
2017-12-21T11:57:13.589Z,76.00
2017-12-21T11:58:13.580Z,72.00
2017-12-21T11:59:13.573Z,68.00
2017-12-21T12:00:13.566Z,68.00
2017-12-21T12:01:13.558Z,64.00
2017-12-21T12:02:13.555Z,72.00
2017-12-21T12:03:13.546Z,76.00
2017-12-21T12:04:13.534Z,84.00
2017-12-21T12:05:13.528Z,80.00
2017-12-21T12:06:13.518Z,84.00
2017-12-21T12:07:13.511Z,84.00
2017-12-21T12:08:13.506Z,92.00
2017-12-21T12:09:13.498Z,92.00
2017-12-21T12:10:13.496Z,100.00
2017-12-21T12:11:13.482Z,104.00
2017-12-21T12:12:13.474Z,116.00
2017-12-21T12:13:13.466Z,124.00
2017-12-21T12:14:13.458Z,128.00
2017-12-21T12:15:13.450Z,128.00
2017-12-21T12:16:13.444Z,128.00
2017-12-21T12:17:13.436Z,136.00
2017-12-21T12:18:13.430Z,140.00
2017-12-21T12:19:13.421Z,148.00
2017-12-21T12:20:13.414Z,148.00
2017-12-21T12:21:13.426Z,148.00
2017-12-21T12:22:13.397Z,148.00
2017-12-21T12:23:13.389Z,152.00
2017-12-21T12:24:13.383Z,168.00
2017-12-21T12:25:13.378Z,176.00
2017-12-21T12:26:13.367Z,176.00
2017-12-21T12:27:13.358Z,164.00
2017-12-21T12:28:13.352Z,164.00
2017-12-21T12:29:13.344Z,164.00
2017-12-21T12:30:13.338Z,168.00
2017-12-21T12:31:13.328Z,164.00
2017-12-21T12:32:13.320Z,160.00
2017-12-21T12:33:13.313Z,152.00
2017-12-21T12:34:13.303Z,152.00
2017-12-21T12:35:13.298Z,140.00
2017-12-21T12:36:13.291Z,128.00
2017-12-21T12:37:13.283Z,124.00
2017-12-21T12:38:13.274Z,120.00
2017-12-21T12:39:13.290Z,120.00
2017-12-21T12:40:13.258Z,108.00
2017-12-21T12:41:13.255Z,92.00
2017-12-21T12:42:13.248Z,80.00
2017-12-21T12:43:13.237Z,68.00
2017-12-21T12:44:13.228Z,64.00
2017-12-21T12:45:13.221Z,68.00
2017-12-21T12:46:13.213Z,64.00
2017-12-21T12:47:13.207Z,68.00
2017-12-21T12:48:13.198Z,72.00
2017-12-21T12:49:13.192Z,72.00
2017-12-21T12:50:13.182Z,68.00
2017-12-21T12:51:13.174Z,68.00
2017-12-21T12:52:13.166Z,72.00
2017-12-21T12:53:13.160Z,76.00
2017-12-21T12:54:13.151Z,72.00
2017-12-21T12:55:13.144Z,76.00
2017-12-21T12:56:13.137Z,72.00
2017-12-21T12:57:13.129Z,72.00
2017-12-21T12:58:13.121Z,76.00
2017-12-21T12:59:13.114Z,84.00
2017-12-21T13:00:13.107Z,84.00
2017-12-21T13:01:13.099Z,88.00
2017-12-21T13:02:13.090Z,92.00
2017-12-21T13:03:13.083Z,96.00
2017-12-21T13:04:13.075Z,96.00
2017-12-21T13:05:13.068Z,92.00